Current Weather

Greater Kankakee

Kankakee, Illinois (KIKK)

Report from: Wednesday, August 17, 2022 9:01 PM CDT
Current time: Wednesday, August 17, 2022 9:16 PM CDT

Nearby weather
Weather history
Weather forecast

Temperature18.0°C (64.4°F)
Dew point16.0°C (60.8°F)
Winds 5 kts (2.6 m/s, 5.8 mph) Northeast (50°)
Visibility10 mi. (16.1 km)
Clouds Sky clear
Altimeter30.09 in.Hg (1019 mB)
Relative humidity88 %
Density altitude410 ft. (125 m)
Remarks Fully automated report
Automated weather observing station with precipitation discriminator
Flight conditions Visual Meteorological Conditions
Raw dataKIKK 180201Z AUTO 05005KT 10SM CLR 18/16 A3009 RMK AO2
An error has occurred. This application may no longer respond until reloaded. Reload 🗙